Time;durP1;ratioP1;P1;durP2;ratioP2;P2;SDS_P1;SDS_P2;PMS_P1;PMS_P2;Temp;Humidity;BMP_temperature;BMP_pressure;BME280_temperature;BME280_humidity;BME280_pressure;Samples;Min_cycle;Max_cycle;Signal;HPM_P1;HPM_P2
2021/05/30 00:01:48;;;;;;;16.40;9.43;;;;;;;18.09;100.00;100175.53;1752405;81;21041;-92
2021/05/30 00:04:14;;;;;;;18.52;9.58;;;;;;;18.09;100.00;100176.91;1752964;81;20854;-90
2021/05/30 00:06:41;;;;;;;18.48;10.08;;;;;;;18.21;100.00;100184.45;1747600;81;21194;-91
2021/05/30 00:09:07;;;;;;;20.95;9.90;;;;;;;18.22;100.00;100186.60;1742660;82;21064;-91
2021/05/30 00:11:35;;;;;;;18.55;9.83;;;;;;;18.14;100.00;100186.27;1742494;82;20973;-91
2021/05/30 00:14:05;;;;;;;22.07;9.45;;;;;;;18.07;100.00;100191.41;1742669;82;21025;-90
2021/05/30 00:16:32;;;;;;;17.23;8.98;;;;;;;18.04;100.00;100187.95;1742614;82;21561;-91
2021/05/30 00:19:01;;;;;;;17.57;8.83;;;;;;;17.97;100.00;100190.91;1742799;82;21573;-91
2021/05/30 00:21:27;;;;;;;15.23;8.43;;;;;;;17.98;100.00;100181.06;1742618;82;21604;-91
2021/05/30 00:23:53;;;;;;;16.87;8.35;;;;;;;17.95;100.00;100190.45;1742756;82;21065;-90
2021/05/30 00:26:19;;;;;;;17.07;8.18;;;;;;;18.03;100.00;100193.19;1742738;82;20898;-90
2021/05/30 00:28:45;;;;;;;20.55;8.33;;;;;;;18.04;100.00;100192.05;1742616;82;20953;-91
2021/05/30 00:31:11;;;;;;;15.63;7.62;;;;;;;18.01;100.00;100187.80;1742746;82;20989;-90
2021/05/30 00:33:37;;;;;;;13.85;7.60;;;;;;;18.08;100.00;100193.00;1742781;82;21860;-90
2021/05/30 00:36:04;;;;;;;17.60;7.85;;;;;;;18.00;100.00;100195.19;1742676;82;20883;-90
2021/05/30 00:38:30;;;;;;;14.50;7.35;;;;;;;17.97;100.00;100200.45;1742528;82;21560;-90
2021/05/30 00:40:57;;;;;;;12.45;6.37;;;;;;;17.85;100.00;100203.27;1742808;82;20922;-90
2021/05/30 00:43:23;;;;;;;21.20;7.25;;;;;;;17.86;100.00;100214.97;1742598;82;21050;-90
2021/05/30 00:45:49;;;;;;;14.20;6.70;;;;;;;17.81;100.00;100216.47;1742785;82;21833;-90
2021/05/30 00:48:16;;;;;;;14.05;6.55;;;;;;;17.75;100.00;100217.14;1742535;82;21041;-90
2021/05/30 00:50:43;;;;;;;15.72;6.33;;;;;;;17.81;100.00;100221.92;1742899;82;21493;-90
2021/05/30 00:53:10;;;;;;;11.45;6.72;;;;;;;17.82;100.00;100225.68;1742508;82;21021;-90
2021/05/30 00:55:37;;;;;;;9.80;5.40;;;;;;;17.69;100.00;100224.66;1742475;82;21530;-90
2021/05/30 00:58:03;;;;;;;10.00;5.83;;;;;;;17.83;100.00;100231.95;1742213;82;21766;-90
2021/05/30 01:00:30;;;;;;;11.50;5.90;;;;;;;17.58;100.00;100227.43;1742207;82;21078;-90
2021/05/30 01:02:56;;;;;;;10.05;5.72;;;;;;;17.62;100.00;100233.87;1742248;82;21014;-90
2021/05/30 01:05:22;;;;;;;8.70;5.22;;;;;;;17.60;100.00;100238.03;1742396;82;20974;-89
2021/05/30 01:07:48;;;;;;;11.90;5.60;;;;;;;17.71;100.00;100240.16;1742261;82;21057;-90
2021/05/30 01:10:29;;;;;;;8.78;4.62;;;;;;;17.65;100.00;100240.62;1742335;82;21165;-90
2021/05/30 01:12:57;;;;;;;8.43;5.20;;;;;;;17.64;100.00;100237.63;1742509;82;21034;-90
2021/05/30 01:15:24;;;;;;;11.00;5.47;;;;;;;17.60;100.00;100225.20;1742392;82;21069;-91
2021/05/30 01:17:54;;;;;;;9.28;4.62;;;;;;;17.66;100.00;100237.56;1742348;82;21075;-89
2021/05/30 01:20:22;;;;;;;9.20;5.12;;;;;;;17.83;100.00;100232.76;1742433;82;21633;-89
2021/05/30 01:22:49;;;;;;;8.20;4.92;;;;;;;17.58;100.00;100234.81;1742511;82;21434;-89
2021/05/30 01:25:20;;;;;;;8.33;4.65;;;;;;;17.55;100.00;100238.16;1742457;82;20966;-90
2021/05/30 01:27:51;;;;;;;9.48;4.78;;;;;;;17.46;100.00;100232.68;1742644;82;20998;-90
2021/05/30 01:30:21;;;;;;;10.25;5.35;;;;;;;17.45;100.00;100240.63;1742339;82;21069;-90
2021/05/30 01:32:48;;;;;;;10.70;4.78;;;;;;;17.56;100.00;100240.59;1742458;82;21060;-90
2021/05/30 01:35:15;;;;;;;9.55;4.83;;;;;;;17.56;100.00;100239.76;1742402;82;21119;-90
2021/05/30 01:37:42;;;;;;;7.17;4.70;;;;;;;17.73;100.00;100245.27;1742265;82;21073;-91
2021/05/30 01:40:10;;;;;;;7.70;4.87;;;;;;;17.58;100.00;100240.26;1742406;82;21044;-90
2021/05/30 01:42:36;;;;;;;7.00;4.72;;;;;;;17.61;100.00;100240.98;1742644;82;21029;-90
2021/05/30 01:45:03;;;;;;;6.65;4.22;;;;;;;17.69;100.00;100238.30;1742502;82;20973;-90
2021/05/30 01:47:29;;;;;;;13.65;4.47;;;;;;;17.75;100.00;100246.33;1742477;82;21577;-90
2021/05/30 01:49:55;;;;;;;7.75;4.37;;;;;;;17.59;100.00;100244.58;1742636;82;21061;-89
2021/05/30 01:52:21;;;;;;;11.22;4.75;;;;;;;17.55;100.00;100238.16;1742627;82;20918;-90
2021/05/30 01:54:50;;;;;;;7.65;4.60;;;;;;;17.48;100.00;100234.55;1743012;82;21013;-91
2021/05/30 01:57:16;;;;;;;10.60;4.25;;;;;;;17.55;100.00;100240.89;1742575;82;21093;-91
2021/05/30 02:02:11;;;;;;;6.72;4.28;;;;;;;17.57;100.00;100242.19;1651288;86;21111;-88
2021/05/30 02:04:44;;;;;;;10.50;3.90;;;;;;;17.52;100.00;100239.59;1651706;86;21134;-88
2021/05/30 02:07:12;;;;;;;6.80;3.50;;;;;;;17.60;100.00;100242.92;1651553;86;21130;-89
2021/05/30 02:09:38;;;;;;;7.53;4.40;;;;;;;17.59;100.00;100246.77;1651357;86;21677;-88
2021/05/30 02:12:07;;;;;;;9.80;3.62;;;;;;;17.52;100.00;100252.42;1651198;86;21372;-88
2021/05/30 02:14:34;;;;;;;6.58;3.90;;;;;;;17.39;100.00;100254.14;1651486;86;21118;-89
2021/05/30 02:17:01;;;;;;;5.28;3.70;;;;;;;17.38;100.00;100257.42;1651347;86;21031;-88
2021/05/30 02:19:27;;;;;;;11.18;5.20;;;;;;;17.19;100.00;100265.01;1651601;86;21091;-88
2021/05/30 02:21:54;;;;;;;9.18;4.22;;;;;;;17.11;100.00;100259.75;1651495;86;21040;-88
2021/05/30 02:28:00;;;;;;;7.70;4.58;;;;;;;17.28;100.00;100262.33;1651518;86;21055;-88
2021/05/30 02:30:26;;;;;;;9.95;4.50;;;;;;;17.33;100.00;100261.64;1651669;86;20983;-87
2021/05/30 02:32:52;;;;;;;10.45;4.67;;;;;;;17.39;100.00;100265.83;1651337;86;21107;-88
2021/05/30 02:35:18;;;;;;;10.35;4.45;;;;;;;17.32;100.00;100266.83;1651166;86;22119;-88
2021/05/30 02:37:45;;;;;;;8.98;4.58;;;;;;;17.43;100.00;100260.55;1651507;86;21184;-88
2021/05/30 02:40:12;;;;;;;7.85;4.58;;;;;;;17.28;100.00;100268.58;1651278;86;21449;-88
2021/05/30 02:42:38;;;;;;;6.80;4.35;;;;;;;17.17;100.00;100270.75;1651578;85;21074;-88
2021/05/30 02:45:06;;;;;;;10.88;4.55;;;;;;;17.32;100.00;100276.92;1651452;86;21075;-88
2021/05/30 02:47:33;;;;;;;9.73;4.60;;;;;;;17.32;100.00;100279.08;1651311;86;21102;-87
2021/05/30 02:49:59;;;;;;;7.53;4.28;;;;;;;17.25;100.00;100279.53;1651285;86;21146;-88
2021/05/30 02:52:25;;;;;;;6.15;4.15;;;;;;;17.29;100.00;100278.34;1651248;86;21134;-88
2021/05/30 02:54:52;;;;;;;7.78;4.15;;;;;;;17.46;100.00;100280.36;1651343;86;21104;-88
2021/05/30 02:57:18;;;;;;;7.70;4.37;;;;;;;17.68;100.00;100272.13;1632358;86;21118;-86
2021/05/30 02:59:44;;;;;;;7.33;4.42;;;;;;;17.90;100.00;100275.91;1663590;83;21048;-86
2021/05/30 03:02:10;;;;;;;10.85;4.90;;;;;;;17.89;100.00;100277.03;1697213;83;21561;-91
2021/05/30 03:04:36;;;;;;;7.28;4.17;;;;;;;17.96;100.00;100282.02;1700835;83;21026;-86
2021/05/30 03:07:02;;;;;;;8.05;4.25;;;;;;;17.74;100.00;100282.89;1697340;84;20994;-86
2021/05/30 03:09:29;;;;;;;7.75;4.22;;;;;;;17.92;100.00;100291.39;1697130;83;21010;-86
2021/05/30 03:11:55;;;;;;;9.38;4.08;;;;;;;17.94;100.00;100290.50;1697274;84;20970;-86
2021/05/30 03:14:21;;;;;;;9.65;3.67;;;;;;;18.05;100.00;100283.63;1697311;84;21121;-86
2021/05/30 03:16:47;;;;;;;7.55;4.20;;;;;;;18.39;100.00;100285.63;1696888;84;20990;-86
2021/05/30 03:19:13;;;;;;;12.35;3.85;;;;;;;18.62;100.00;100290.94;1697407;83;20995;-86
2021/05/30 03:21:40;;;;;;;6.08;4.10;;;;;;;18.95;100.00;100293.20;1697319;84;21058;-86
2021/05/30 03:24:08;;;;;;;11.88;3.50;;;;;;;19.58;100.00;100290.20;1697237;84;21070;-87
2021/05/30 03:26:36;;;;;;;4.80;3.22;;;;;;;20.18;100.00;100282.28;1697076;84;21129;-87
2021/05/30 03:29:03;;;;;;;4.17;2.90;;;;;;;20.60;100.00;100276.05;1697392;84;21577;-86
2021/05/30 03:31:30;;;;;;;6.50;3.00;;;;;;;20.86;100.00;100287.58;1697178;83;21602;-86
2021/05/30 03:33:56;;;;;;;7.40;2.98;;;;;;;20.74;100.00;100277.94;1697344;84;21045;-86
2021/05/30 03:36:26;;;;;;;7.22;2.70;;;;;;;20.71;100.00;100275.08;1697208;84;20926;-86
2021/05/30 03:39:01;;;;;;;7.00;2.83;;;;;;;20.93;100.00;100275.27;1700741;83;21053;-86
2021/05/30 03:41:20;;;;;;;5.92;2.60;;;;;;;21.61;100.00;100279.77;1674083;84;21130;-86
2021/05/30 03:43:47;;;;;;;3.62;2.60;;;;;;;21.97;100.00;100273.49;1697019;84;21124;-86
2021/05/30 03:46:13;;;;;;;5.40;2.25;;;;;;;22.16;100.00;100268.77;1697179;84;21558;-86
2021/05/30 03:48:39;;;;;;;4.12;2.35;;;;;;;22.55;100.00;100273.84;1697186;84;21007;-86
2021/05/30 03:51:05;;;;;;;5.70;2.52;;;;;;;23.18;100.00;100287.80;1697256;84;21556;-86
2021/05/30 03:53:30;;;;;;;3.70;2.30;;;;;;;23.51;100.00;100288.84;1701247;83;20970;-87
2021/05/30 03:55:56;;;;;;;3.10;2.08;;;;;;;23.34;100.00;100285.06;1697430;83;20994;-86
2021/05/30 03:58:22;;;;;;;3.52;2.08;;;;;;;24.41;100.00;100280.73;1749472;81;20909;-85
2021/05/30 04:04:29;;;;;;;5.15;2.30;;;;;;;23.89;100.00;100293.52;1742941;82;21545;-86
2021/05/30 04:06:55;;;;;;;6.35;2.33;;;;;;;23.96;100.00;100295.05;1742606;82;21090;-86
2021/05/30 04:13:02;;;;;;;2.87;2.20;;;;;;;24.03;100.00;100296.58;1742624;82;21053;-86
2021/05/30 04:15:27;;;;;;;3.22;2.33;;;;;;;23.90;100.00;100292.35;1742793;82;21001;-85
2021/05/30 04:17:53;;;;;;;3.45;2.00;;;;;;;23.75;100.00;100300.27;1743003;82;21070;-85
2021/05/30 04:20:21;;;;;;;3.33;2.02;;;;;;;23.96;100.00;100292.30;1742754;82;21490;-88
2021/05/30 04:22:47;;;;;;;5.03;2.12;;;;;;;24.10;100.00;100299.52;1742864;82;20971;-87
2021/05/30 04:25:17;;;;;;;3.80;2.05;;;;;;;23.97;100.00;100301.59;1742820;82;22217;-86
2021/05/30 04:27:43;;;;;;;1.75;1.65;;;;;;;24.24;100.00;100307.30;1742733;82;21056;-86
2021/05/30 04:30:12;;;;;;;2.72;1.90;;;;;;;24.29;100.00;100297.36;1742914;82;21057;-86
2021/05/30 04:32:39;;;;;;;6.72;2.20;;;;;;;24.56;100.00;100302.52;1742516;82;21097;-86
2021/05/30 04:35:08;;;;;;;3.52;1.87;;;;;;;24.46;100.00;100303.08;1742657;82;21037;-86
2021/05/30 04:37:34;;;;;;;2.27;1.80;;;;;;;24.30;100.00;100302.31;1742621;82;21111;-86
2021/05/30 04:43:40;;;;;;;3.95;1.90;;;;;;;24.95;100.00;100299.75;1742870;82;21065;-86
2021/05/30 04:46:06;;;;;;;2.98;1.90;;;;;;;25.90;100.00;100299.08;1742779;82;20989;-87
2021/05/30 04:52:12;;;;;;;3.05;1.85;;;;;;;26.59;100.00;100303.05;1742679;82;20999;-88
2021/05/30 04:54:39;;;;;;;4.22;1.92;;;;;;;27.67;100.00;100302.78;1720196;82;21627;-87
2021/05/30 04:57:08;;;;;;;6.30;1.90;;;;;;;28.22;100.00;100305.58;1715631;82;21640;-87
2021/05/30 04:59:34;;;;;;;11.18;1.72;;;;;;;28.56;100.00;100306.75;1742461;82;21049;-87
2021/05/30 05:02:00;;;;;;;3.22;1.90;;;;;;;28.13;100.00;100307.91;1742405;82;20914;-86
2021/05/30 05:04:26;;;;;;;3.05;2.05;;;;;;;27.79;100.00;100305.28;1745465;81;20954;-85
2021/05/30 05:06:52;;;;;;;2.20;1.98;;;;;;;28.14;100.00;100308.88;1742578;82;20950;-87
2021/05/30 05:12:58;;;;;;;3.80;1.20;;;;;;;28.50;100.00;100308.53;1702201;84;21077;-88
2021/05/30 05:19:05;;;;;;;3.65;1.75;;;;;;;27.86;100.00;100308.12;1692962;84;21670;-88
2021/05/30 05:21:31;;;;;;;2.92;1.77;;;;;;;28.01;100.00;100307.03;1696764;84;21026;-87
2021/05/30 05:23:57;;;;;;;3.50;1.80;;;;;;;27.15;93.08;100303.52;1696634;84;21761;-86
2021/05/30 05:26:23;;;;;;;4.40;1.62;;;;;;;27.12;100.00;100311.16;1709448;81;20930;-87
2021/05/30 05:28:49;;;;;;;2.77;1.80;;;;;;;26.46;100.00;100312.70;1736966;81;21134;-88
2021/05/30 05:31:15;;;;;;;1.75;1.40;;;;;;;27.12;100.00;100317.25;1716832;82;21125;-86
2021/05/30 05:33:44;;;;;;;3.83;1.60;;;;;;;27.20;100.00;100308.48;1749151;80;20891;-87
2021/05/30 05:36:10;;;;;;;2.35;1.62;;;;;;;27.18;100.00;100311.05;1756102;80;21597;-86
2021/05/30 05:38:36;;;;;;;8.40;1.80;;;;;;;28.41;100.00;100315.56;1755935;80;21117;-87
2021/05/30 05:41:04;;;;;;;4.15;1.57;;;;;;;27.75;100.00;100314.13;1757798;79;21063;-88
2021/05/30 05:43:30;;;;;;;1.65;1.42;;;;;;;27.85;100.00;100323.95;1750622;79;21128;-87
2021/05/30 05:45:56;;;;;;;4.40;1.87;;;;;;;27.49;100.00;100323.39;1760757;79;21093;-87
2021/05/30 05:48:22;;;;;;;2.30;1.85;;;;;;;27.37;100.00;100332.77;1765916;80;21155;-87
2021/05/30 05:50:48;;;;;;;1.60;1.30;;;;;;;26.71;100.00;100328.27;1758494;80;21109;-86
2021/05/30 05:53:16;;;;;;;6.90;1.72;;;;;;;26.42;100.00;100333.39;1760075;80;20923;-87
2021/05/30 05:55:42;;;;;;;2.22;1.35;;;;;;;26.22;100.00;100330.53;1763890;79;21035;-87
2021/05/30 05:58:18;;;;;;;2.70;1.40;;;;;;;25.38;100.00;100330.91;1739614;81;21014;-86
2021/05/30 10:33:27;;;;;;;3.72;0.80;;;;;;;27.40;48.34;100487.02;1574336;89;21816;-91
2021/05/30 10:39:33;;;;;;;4.60;1.20;;;;;;;27.31;46.60;100487.89;1817593;77;22721;-90
2021/05/30 10:42:21;;;;;;;3.20;0.80;;;;;;;27.27;46.80;100482.91;1763155;79;20973;-91
2021/05/30 10:45:07;;;;;;;1.17;0.70;;;;;;;26.90;47.52;100480.20;1771398;79;21589;-90
2021/05/30 10:47:52;;;;;;;2.35;0.80;;;;;;;27.16;45.19;100484.14;1764612;79;21064;-88
2021/05/30 10:50:18;;;;;;;3.05;0.72;;;;;;;27.73;48.12;100486.78;1785815;78;20993;-88
2021/05/30 10:52:48;;;;;;;2.20;0.90;;;;;;;27.64;48.79;100486.49;1764715;79;21012;-89
2021/05/30 10:55:18;;;;;;;1.02;0.93;;;;;;;27.54;48.15;100491.93;1763656;81;21087;-88
2021/05/30 10:57:48;;;;;;;1.98;0.90;;;;;;;27.83;50.23;100486.15;1794578;79;22006;-88
2021/05/30 11:00:25;;;;;;;3.37;0.80;;;;;;;27.73;46.00;100493.12;1743577;80;21116;-86
2021/05/30 11:03:07;;;;;;;7.58;1.00;;;;;;;27.98;45.07;100490.64;1763899;81;21123;-87
2021/05/30 11:05:57;;;;;;;1.57;1.00;;;;;;;27.38;46.84;100495.70;1763706;81;21583;-86
2021/05/30 11:08:35;;;;;;;1.07;0.88;;;;;;;27.54;45.78;100485.01;1763579;81;21076;-86
2021/05/30 11:11:28;;;;;;;1.37;0.80;;;;;;;27.70;47.46;100499.41;1763596;81;21127;-86
2021/05/30 11:14:12;;;;;;;3.33;0.78;;;;;;;27.47;48.34;100498.75;1646558;87;21694;-88
2021/05/30 11:16:45;;;;;;;1.05;0.88;;;;;;;27.70;48.24;100499.41;1612802;89;21094;-86
2021/05/30 11:19:14;;;;;;;;;;;;;;;27.45;48.29;100503.30;1615119;89;21136;-87
2021/05/30 11:21:45;;;;;;;3.35;0.75;;;;;;;27.61;46.94;100498.92;1580127;90;20227;-87
2021/05/30 11:24:20;;;;;;;1.37;0.70;;;;;;;27.51;44.14;100507.31;1592431;89;21192;-86
2021/05/30 11:27:04;;;;;;;1.00;0.70;;;;;;;27.47;44.08;100500.92;1612785;89;21109;-88
2021/05/30 11:29:34;;;;;;;1.10;0.90;;;;;;;27.48;45.19;100498.98;1612716;89;21117;-90
2021/05/30 11:32:02;;;;;;;1.90;0.93;;;;;;;27.84;45.47;100504.34;1612568;89;21219;-88
2021/05/30 11:34:35;;;;;;;1.15;0.80;;;;;;;27.83;44.36;100504.16;1612837;87;21041;-89
2021/05/30 11:37:10;;;;;;;0.88;0.70;;;;;;;27.85;46.51;100509.52;1612608;87;21623;-86
2021/05/30 11:39:43;;;;;;;2.05;0.82;;;;;;;27.44;45.59;100509.98;1612858;89;21124;-87
2021/05/30 11:42:10;;;;;;;1.52;0.85;;;;;;;27.76;49.46;100503.44;1549182;92;21403;-89
2021/05/30 11:44:36;;;;;;;0.72;0.60;;;;;;;27.91;46.09;100507.77;1541304;92;21195;-87
2021/05/30 11:47:08;;;;;;;0.70;0.70;;;;;;;27.84;47.40;100509.30;1528099;93;21643;-87
2021/05/30 11:49:38;;;;;;;3.33;0.80;;;;;;;28.01;47.09;100508.48;1530191;92;21387;-87
2021/05/30 11:52:08;;;;;;;4.15;0.95;;;;;;;28.14;45.89;100508.41;1476942;93;21131;-85
2021/05/30 11:54:46;;;;;;;4.37;1.00;;;;;;;28.23;43.81;100510.86;1484302;96;21159;-86
2021/05/30 11:57:17;;;;;;;1.15;1.00;;;;;;;28.29;46.49;100510.71;1524944;91;21744;-88
2021/05/30 12:00:02;;;;;;;0.88;0.88;;;;;;;28.40;45.60;100515.77;1555199;92;21149;-85
2021/05/30 12:02:41;;;;;;;3.17;1.00;;;;;;;28.12;46.73;100513.55;1558175;91;21658;-85
2021/05/30 12:05:11;;;;;;;2.08;0.90;;;;;;;27.89;46.27;100521.23;1555282;91;21166;-85
2021/05/30 12:07:38;;;;;;;1.37;0.75;;;;;;;27.50;41.58;100531.21;1552642;90;21140;-85
2021/05/30 12:10:10;;;;;;;1.75;0.80;;;;;;;27.24;45.68;100537.59;1554898;90;21065;-86
2021/05/30 12:12:40;;;;;;;1.35;0.80;;;;;;;26.79;44.07;100528.23;1582556;90;21350;-85
2021/05/30 12:15:21;;;;;;;2.35;0.80;;;;;;;26.81;47.09;100538.34;1581916;90;21972;-85
2021/05/30 12:18:03;;;;;;;3.52;0.90;;;;;;;27.09;46.87;100539.33;1548519;91;21083;-84
2021/05/30 12:20:40;;;;;;;2.25;0.72;;;;;;;26.60;46.27;100551.25;1546008;91;21145;-86
2021/05/30 12:23:09;;;;;;;1.98;0.98;;;;;;;26.47;46.78;100539.53;1525731;92;21127;-84
2021/05/30 12:25:38;;;;;;;5.40;1.00;;;;;;;26.58;46.78;100539.16;1546386;91;21593;-84
2021/05/30 12:28:04;;;;;;;1.77;0.90;;;;;;;26.78;47.11;100547.38;1560582;91;21253;-85
2021/05/30 12:30:30;;;;;;;3.33;0.90;;;;;;;26.76;45.83;100540.03;1548362;91;21662;-86
2021/05/30 12:33:02;;;;;;;1.30;1.20;;;;;;;26.44;45.64;100545.24;1546488;92;21506;-88
2021/05/30 12:35:52;;;;;;;5.60;0.80;;;;;;;26.76;47.25;100551.89;1550697;91;21080;-83
2021/05/30 12:38:25;;;;;;;4.50;0.70;;;;;;;26.99;48.47;100557.97;1556743;90;21105;-87
2021/05/30 12:40:51;;;;;;;1.75;1.27;;;;;;;26.91;43.96;100555.67;1543695;92;21170;-88
2021/05/30 12:43:40;;;;;;;1.62;0.60;;;;;;;26.60;46.34;100563.69;1545859;92;21603;-85
2021/05/30 12:46:10;;;;;;;1.60;0.98;;;;;;;26.86;48.57;100554.63;1542467;91;21099;-84
2021/05/30 12:48:49;;;;;;;1.10;0.78;;;;;;;26.36;46.01;100561.48;1541221;90;21103;-84
2021/05/30 12:51:22;;;;;;;3.30;0.93;;;;;;;26.35;46.46;100569.53;1579773;88;21158;-86
2021/05/30 12:53:49;;;;;;;1.67;1.00;;;;;;;26.12;46.51;100564.01;1541879;91;21810;-85
2021/05/30 12:56:29;;;;;;;3.60;0.95;;;;;;;26.16;47.52;100570.39;1552985;90;21067;-84
2021/05/30 12:59:19;;;;;;;1.27;0.65;;;;;;;26.18;46.78;100572.80;1520138;94;21087;-84
2021/05/30 13:01:48;;;;;;;4.58;0.85;;;;;;;26.36;47.89;100576.67;1520054;94;21634;-83
2021/05/30 13:04:35;;;;;;;4.33;0.80;;;;;;;26.80;47.88;100574.09;1520326;94;21040;-83
2021/05/30 13:07:10;;;;;;;0.90;0.80;;;;;;;26.89;44.37;100581.54;1470661;96;21493;-83
2021/05/30 13:09:50;;;;;;;3.85;0.95;;;;;;;26.74;44.85;100580.52;1471308;97;21129;-83
2021/05/30 13:12:43;;;;;;;3.40;0.80;;;;;;;26.35;44.67;100573.67;1491255;96;21662;-83
2021/05/30 13:15:26;;;;;;;1.40;0.80;;;;;;;26.22;46.13;100571.68;1505367;91;21135;-83
2021/05/30 13:17:58;;;;;;;2.10;1.17;;;;;;;26.24;45.68;100585.94;1544023;92;21136;-84
2021/05/30 13:20:40;;;;;;;2.65;1.00;;;;;;;26.10;48.21;100581.52;1544481;92;21269;-83
2021/05/30 13:23:18;;;;;;;3.85;1.20;;;;;;;25.94;47.74;100578.86;1552187;90;21160;-84
2021/05/30 13:25:48;;;;;;;2.58;1.00;;;;;;;25.82;48.03;100590.86;1552101;92;21140;-83
2021/05/30 13:28:26;;;;;;;3.75;1.00;;;;;;;26.45;48.12;100586.11;1544145;90;21104;-83
2021/05/30 13:31:03;;;;;;;3.67;0.78;;;;;;;26.16;46.54;100589.73;1541402;91;21104;-83
2021/05/30 13:33:33;;;;;;;1.12;0.80;;;;;;;26.47;48.01;100584.58;1471280;97;21299;-82
2021/05/30 13:35:59;;;;;;;0.93;0.65;;;;;;;26.27;46.88;100583.02;1471523;97;21099;-83
2021/05/30 13:38:27;;;;;;;2.02;0.82;;;;;;;25.90;48.15;100584.88;1513268;94;21629;-84
2021/05/30 13:40:55;;;;;;;4.03;0.75;;;;;;;26.01;48.71;100583.13;1525868;94;21122;-84
2021/05/30 13:43:21;;;;;;;5.70;0.80;;;;;;;25.65;47.29;100576.07;1525897;94;21120;-85
2021/05/30 13:45:48;;;;;;;0.88;0.80;;;;;;;25.75;49.86;100585.14;1526156;94;21114;-87
2021/05/30 13:48:16;;;;;;;1.52;0.80;;;;;;;25.81;48.80;100589.80;1512338;93;21103;-86
2021/05/30 13:50:46;;;;;;;3.12;0.80;;;;;;;26.08;49.82;100586.60;1519900;92;21693;-83
2021/05/30 13:53:13;;;;;;;4.67;1.07;;;;;;;26.14;49.25;100585.14;1510962;94;21692;-85
2021/05/30 13:55:40;;;;;;;2.95;0.98;;;;;;;25.88;48.41;100594.69;1529826;93;21129;-86
2021/05/30 13:58:07;;;;;;;2.92;0.80;;;;;;;25.90;49.08;100601.45;1549088;92;21278;-83
2021/05/30 14:00:34;;;;;;;1.70;0.82;;;;;;;25.88;50.19;100601.59;1554271;92;21177;-87
2021/05/30 14:03:01;;;;;;;1.30;0.82;;;;;;;25.74;51.23;100599.32;1553860;92;21133;-84
2021/05/30 14:05:28;;;;;;;3.98;0.88;;;;;;;25.70;49.46;100606.71;1554066;92;21140;-86
2021/05/30 14:07:54;;;;;;;1.05;0.62;;;;;;;25.73;50.30;100613.68;1546211;91;21281;-83
2021/05/30 14:10:20;;;;;;;2.50;0.90;;;;;;;25.73;50.57;100604.61;1538925;93;21137;-91
2021/05/30 14:12:48;;;;;;;3.40;0.95;;;;;;;25.40;50.23;100608.63;1577771;89;20995;-96
2021/05/30 14:15:15;;;;;;;1.10;0.82;;;;;;;25.63;52.22;100612.09;1605423;89;21073;-86
2021/05/30 14:17:41;;;;;;;3.47;0.98;;;;;;;25.43;51.47;100620.92;1619360;88;21688;-87
2021/05/30 14:20:09;;;;;;;1.40;1.00;;;;;;;25.50;50.03;100614.16;1630820;88;20930;-88
2021/05/30 14:22:37;;;;;;;4.60;1.40;;;;;;;25.63;52.93;100622.55;1630850;88;21453;-85
2021/05/30 14:25:05;;;;;;;2.25;0.90;;;;;;;25.92;52.94;100620.42;1630905;88;21126;-85
2021/05/30 14:27:32;;;;;;;3.17;1.05;;;;;;;25.95;52.17;100623.84;1627490;88;21109;-84
2021/05/30 14:29:59;;;;;;;2.90;0.90;;;;;;;26.09;51.82;100621.37;1663196;82;21030;-85
2021/05/30 14:32:25;;;;;;;0.88;0.80;;;;;;;26.01;50.42;100627.32;1739650;82;21523;-84
2021/05/30 14:34:51;;;;;;;1.47;1.00;;;;;;;25.55;49.40;100626.31;1718468;82;21072;-86
2021/05/30 14:37:17;;;;;;;3.20;0.85;;;;;;;25.82;51.23;100622.61;1724760;82;21092;-84
2021/05/30 14:39:42;;;;;;;2.55;1.05;;;;;;;25.66;51.30;100634.83;1699678;84;20922;-84
2021/05/30 14:42:10;;;;;;;1.65;0.80;;;;;;;25.57;51.19;100635.03;1702338;83;20926;-88
2021/05/30 14:44:36;;;;;;;3.72;1.00;;;;;;;25.55;50.05;100630.45;1714903;83;21094;-85
2021/05/30 14:47:02;;;;;;;2.37;1.12;;;;;;;25.54;52.73;100634.38;1727589;82;21076;-85
2021/05/30 14:49:28;;;;;;;3.35;1.15;;;;;;;25.53;51.05;100635.52;1744342;82;21046;-84
2021/05/30 14:51:54;;;;;;;1.10;1.00;;;;;;;25.19;50.15;100632.98;1729237;80;20916;-85
2021/05/30 14:54:19;;;;;;;1.35;0.80;;;;;;;25.28;52.22;100639.10;1706809;82;21055;-85
2021/05/30 14:56:45;;;;;;;3.02;1.02;;;;;;;25.43;53.58;100633.33;1704396;84;20998;-86
2021/05/30 14:59:12;;;;;;;2.60;1.00;;;;;;;25.64;53.12;100637.94;1704582;84;21100;-86
2021/05/30 15:01:37;;;;;;;1.90;0.90;;;;;;;25.66;52.38;100635.62;1704450;84;21042;-85
2021/05/30 15:04:04;;;;;;;1.00;0.80;;;;;;;25.71;52.97;100644.22;1704409;84;20987;-86
2021/05/30 15:06:31;;;;;;;1.87;1.00;;;;;;;25.50;52.57;100643.14;1708061;82;21115;-85
2021/05/30 15:08:58;;;;;;;4.30;1.00;;;;;;;25.33;53.26;100650.66;1722072;83;21020;-83
2021/05/30 15:11:25;;;;;;;3.55;1.00;;;;;;;25.21;53.19;100648.02;1722022;81;21341;-85
2021/05/30 15:13:53;;;;;;;1.32;0.80;;;;;;;25.18;52.51;100659.77;1721914;83;21049;-85
2021/05/30 15:16:19;;;;;;;2.98;1.07;;;;;;;24.53;51.17;100657.31;1722101;82;21025;-87
2021/05/30 15:18:46;;;;;;;1.62;0.78;;;;;;;24.95;53.31;100661.53;1704422;82;21102;-86
2021/05/30 15:21:13;;;;;;;3.42;1.05;;;;;;;25.15;53.31;100666.80;1704507;84;21078;-86
2021/05/30 15:23:39;;;;;;;1.20;0.90;;;;;;;25.15;52.90;100672.31;1696497;81;21100;-86
2021/05/30 15:26:11;;;;;;;1.10;0.72;;;;;;;25.16;49.91;100673.11;1763729;81;20940;-86
2021/05/30 15:28:37;;;;;;;1.10;0.93;;;;;;;25.01;50.63;100671.92;1704904;84;21026;-86
2021/05/30 15:31:03;;;;;;;1.60;0.78;;;;;;;25.00;50.99;100668.95;1704505;84;20900;-87
2021/05/30 15:33:29;;;;;;;4.72;1.20;;;;;;;25.05;51.36;100672.01;1704668;84;21011;-86
2021/05/30 15:36:10;;;;;;;3.47;0.90;;;;;;;24.85;50.86;100671.91;1704638;84;21146;-86
2021/05/30 15:38:38;;;;;;;2.08;1.00;;;;;;;24.83;51.67;100674.23;1704096;84;21039;-85
2021/05/30 15:41:06;;;;;;;4.75;1.10;;;;;;;24.75;52.04;100675.78;1704530;84;21089;-85
2021/05/30 15:43:32;;;;;;;3.10;1.17;;;;;;;24.45;53.01;100672.84;1704454;83;21048;-85
2021/05/30 15:45:58;;;;;;;1.47;1.00;;;;;;;24.59;53.67;100677.12;1704674;84;21035;-85
2021/05/30 15:48:25;;;;;;;3.67;0.82;;;;;;;24.68;53.17;100675.02;1709222;82;21117;-85
2021/05/30 15:53:37;;;;;;;3.02;1.65;;;;;;;24.52;53.19;100681.87;1749994;81;21019;-86
2021/05/30 15:56:04;;;;;;;4.05;1.02;;;;;;;24.37;54.82;100670.20;1743360;81;21088;-85
2021/05/30 15:58:31;;;;;;;3.15;0.95;;;;;;;23.83;53.87;100683.02;1725971;81;21087;-85
2021/05/30 16:00:57;;;;;;;1.42;0.90;;;;;;;23.87;56.12;100688.05;1726644;83;21861;-85
2021/05/30 16:03:23;;;;;;;1.42;0.95;;;;;;;23.80;56.01;100688.64;1726741;83;21104;-86
2021/05/30 16:05:49;;;;;;;3.87;1.50;;;;;;;23.50;55.72;100692.18;1730744;81;21014;-87
2021/05/30 16:08:20;;;;;;;3.02;0.95;;;;;;;23.34;57.23;100692.08;1702991;83;20944;-87
2021/05/30 16:10:46;;;;;;;1.62;1.00;;;;;;;23.56;57.62;100686.12;1709451;82;21031;-86
2021/05/30 16:13:13;;;;;;;1.95;1.20;;;;;;;23.34;59.04;100688.75;1726686;83;21877;-86
2021/05/30 16:15:40;;;;;;;2.00;1.27;;;;;;;23.40;58.81;100680.28;1726577;81;21557;-87
2021/05/30 16:18:08;;;;;;;3.25;1.17;;;;;;;23.27;57.60;100685.78;1729333;82;21071;-88
2021/05/30 16:20:37;;;;;;;1.37;0.80;;;;;;;23.35;58.09;100682.67;1739097;81;21043;-87
2021/05/30 16:23:04;;;;;;;0.85;0.80;;;;;;;23.35;58.37;100684.05;1726718;83;21034;-87
2021/05/30 16:25:31;;;;;;;2.75;1.22;;;;;;;23.13;58.37;100686.69;1726718;83;21130;-87
2021/05/30 16:27:57;;;;;;;7.10;2.72;;;;;;;23.17;58.28;100679.92;1733322;80;21067;-88
2021/05/30 16:30:24;;;;;;;6.33;2.83;;;;;;;23.15;58.27;100679.46;1732032;80;21045;-88
2021/05/30 16:32:51;;;;;;;2.72;1.57;;;;;;;22.97;58.99;100678.88;1758396;81;21067;-88
2021/05/30 16:35:18;;;;;;;5.20;2.17;;;;;;;22.83;60.02;100684.10;1761544;81;21095;-88